sensor_id;sensor_type;location;lat;lon;timestamp;P1;durP1;ratioP1;P2;durP2;ratioP2
7406;SDS011;3745;56.964;24.128;2023-07-20T00:00:45;7.63;;;1.88;;
7406;SDS011;3745;56.964;24.128;2023-07-20T00:03:11;6.97;;;2.35;;
7406;SDS011;3745;56.964;24.128;2023-07-20T00:05:41;7.43;;;2.17;;
7406;SDS011;3745;56.964;24.128;2023-07-20T00:08:10;4.72;;;2.35;;
7406;SDS011;3745;56.964;24.128;2023-07-20T00:10:36;3.28;;;2.00;;
7406;SDS011;3745;56.964;24.128;2023-07-20T00:13:01;6.80;;;2.90;;
7406;SDS011;3745;56.964;24.128;2023-07-20T00:15:27;6.95;;;2.70;;
7406;SDS011;3745;56.964;24.128;2023-07-20T00:17:53;4.65;;;1.90;;
7406;SDS011;3745;56.964;24.128;2023-07-20T00:20:18;3.85;;;2.15;;
7406;SDS011;3745;56.964;24.128;2023-07-20T00:22:44;5.35;;;2.30;;
7406;SDS011;3745;56.964;24.128;2023-07-20T00:25:09;3.40;;;2.85;;
7406;SDS011;3745;56.964;24.128;2023-07-20T00:27:36;3.10;;;2.13;;
7406;SDS011;3745;56.964;24.128;2023-07-20T00:30:03;7.85;;;2.70;;
7406;SDS011;3745;56.964;24.128;2023-07-20T00:32:29;9.32;;;2.80;;
7406;SDS011;3745;56.964;24.128;2023-07-20T00:34:55;6.93;;;2.30;;
7406;SDS011;3745;56.964;24.128;2023-07-20T00:37:20;4.20;;;2.00;;
7406;SDS011;3745;56.964;24.128;2023-07-20T00:39:46;7.32;;;2.88;;
7406;SDS011;3745;56.964;24.128;2023-07-20T00:42:12;8.77;;;2.63;;
7406;SDS011;3745;56.964;24.128;2023-07-20T00:44:37;5.78;;;2.45;;
7406;SDS011;3745;56.964;24.128;2023-07-20T00:47:03;4.50;;;2.45;;
7406;SDS011;3745;56.964;24.128;2023-07-20T00:49:30;4.25;;;2.58;;
7406;SDS011;3745;56.964;24.128;2023-07-20T00:51:57;8.43;;;2.35;;
7406;SDS011;3745;56.964;24.128;2023-07-20T00:54:24;7.35;;;2.85;;
7406;SDS011;3745;56.964;24.128;2023-07-20T00:56:50;3.33;;;2.28;;
7406;SDS011;3745;56.964;24.128;2023-07-20T00:59:18;6.93;;;2.65;;
7406;SDS011;3745;56.964;24.128;2023-07-20T01:01:44;6.82;;;2.20;;
7406;SDS011;3745;56.964;24.128;2023-07-20T01:04:09;8.88;;;2.47;;
7406;SDS011;3745;56.964;24.128;2023-07-20T01:09:19;4.38;;;2.40;;
7406;SDS011;3745;56.964;24.128;2023-07-20T01:12:05;3.10;;;2.22;;
7406;SDS011;3745;56.964;24.128;2023-07-20T01:14:34;2.60;;;2.05;;
7406;SDS011;3745;56.964;24.128;2023-07-20T01:17:01;4.85;;;2.40;;
7406;SDS011;3745;56.964;24.128;2023-07-20T01:19:28;5.63;;;2.13;;
7406;SDS011;3745;56.964;24.128;2023-07-20T01:21:55;4.13;;;2.50;;
7406;SDS011;3745;56.964;24.128;2023-07-20T01:24:52;5.40;;;2.50;;
7406;SDS011;3745;56.964;24.128;2023-07-20T01:33:21;7.15;;;2.30;;
7406;SDS011;3745;56.964;24.128;2023-07-20T01:35:53;6.80;;;2.10;;
7406;SDS011;3745;56.964;24.128;2023-07-20T01:38:21;4.50;;;1.98;;
7406;SDS011;3745;56.964;24.128;2023-07-20T01:40:49;5.15;;;2.80;;
7406;SDS011;3745;56.964;24.128;2023-07-20T01:43:15;4.00;;;2.38;;
7406;SDS011;3745;56.964;24.128;2023-07-20T01:45:41;4.60;;;2.20;;
7406;SDS011;3745;56.964;24.128;2023-07-20T01:48:07;6.13;;;2.28;;
7406;SDS011;3745;56.964;24.128;2023-07-20T01:50:32;4.03;;;2.25;;
7406;SDS011;3745;56.964;24.128;2023-07-20T01:52:59;10.38;;;2.50;;
7406;SDS011;3745;56.964;24.128;2023-07-20T01:55:26;3.30;;;2.50;;
7406;SDS011;3745;56.964;24.128;2023-07-20T01:57:51;3.88;;;2.25;;
7406;SDS011;3745;56.964;24.128;2023-07-20T02:00:17;3.65;;;2.47;;
7406;SDS011;3745;56.964;24.128;2023-07-20T02:02:46;3.90;;;2.42;;
7406;SDS011;3745;56.964;24.128;2023-07-20T02:05:12;4.75;;;2.50;;
7406;SDS011;3745;56.964;24.128;2023-07-20T02:07:37;4.85;;;2.60;;
7406;SDS011;3745;56.964;24.128;2023-07-20T02:13:09;7.78;;;2.08;;
7406;SDS011;3745;56.964;24.128;2023-07-20T02:15:35;6.20;;;2.60;;
7406;SDS011;3745;56.964;24.128;2023-07-20T02:18:00;5.07;;;1.77;;
7406;SDS011;3745;56.964;24.128;2023-07-20T02:20:26;7.43;;;2.38;;
7406;SDS011;3745;56.964;24.128;2023-07-20T02:22:52;5.07;;;2.38;;
7406;SDS011;3745;56.964;24.128;2023-07-20T02:25:18;3.60;;;2.40;;
7406;SDS011;3745;56.964;24.128;2023-07-20T02:27:44;5.97;;;2.47;;
7406;SDS011;3745;56.964;24.128;2023-07-20T02:30:09;7.68;;;2.78;;
7406;SDS011;3745;56.964;24.128;2023-07-20T02:32:35;4.43;;;2.35;;
7406;SDS011;3745;56.964;24.128;2023-07-20T02:35:01;4.60;;;2.70;;
7406;SDS011;3745;56.964;24.128;2023-07-20T02:37:28;3.97;;;2.25;;
7406;SDS011;3745;56.964;24.128;2023-07-20T02:39:54;3.63;;;2.25;;
7406;SDS011;3745;56.964;24.128;2023-07-20T02:42:20;4.47;;;2.53;;
7406;SDS011;3745;56.964;24.128;2023-07-20T02:44:48;4.30;;;2.13;;
7406;SDS011;3745;56.964;24.128;2023-07-20T02:47:14;6.05;;;2.58;;
7406;SDS011;3745;56.964;24.128;2023-07-20T02:49:40;7.65;;;2.78;;
7406;SDS011;3745;56.964;24.128;2023-07-20T02:52:05;7.60;;;2.05;;
7406;SDS011;3745;56.964;24.128;2023-07-20T02:54:31;6.55;;;2.45;;
7406;SDS011;3745;56.964;24.128;2023-07-20T02:56:56;6.57;;;2.17;;
7406;SDS011;3745;56.964;24.128;2023-07-20T02:59:22;5.30;;;2.70;;
7406;SDS011;3745;56.964;24.128;2023-07-20T03:01:47;5.60;;;2.58;;
7406;SDS011;3745;56.964;24.128;2023-07-20T03:04:13;3.65;;;2.30;;
7406;SDS011;3745;56.964;24.128;2023-07-20T03:06:39;4.07;;;2.70;;
7406;SDS011;3745;56.964;24.128;2023-07-20T03:09:04;4.47;;;2.58;;
7406;SDS011;3745;56.964;24.128;2023-07-20T03:11:32;5.05;;;2.30;;
7406;SDS011;3745;56.964;24.128;2023-07-20T03:13:59;3.38;;;2.22;;
7406;SDS011;3745;56.964;24.128;2023-07-20T03:16:24;4.78;;;2.33;;
7406;SDS011;3745;56.964;24.128;2023-07-20T03:18:50;8.35;;;2.65;;
7406;SDS011;3745;56.964;24.128;2023-07-20T03:21:16;5.78;;;2.10;;
7406;SDS011;3745;56.964;24.128;2023-07-20T03:23:42;6.15;;;2.75;;
7406;SDS011;3745;56.964;24.128;2023-07-20T03:26:08;3.25;;;2.50;;
7406;SDS011;3745;56.964;24.128;2023-07-20T03:28:37;3.97;;;2.10;;
7406;SDS011;3745;56.964;24.128;2023-07-20T03:31:03;5.22;;;2.20;;
7406;SDS011;3745;56.964;24.128;2023-07-20T03:33:29;3.50;;;2.40;;
7406;SDS011;3745;56.964;24.128;2023-07-20T03:35:56;5.07;;;2.42;;
7406;SDS011;3745;56.964;24.128;2023-07-20T03:38:25;4.40;;;2.33;;
7406;SDS011;3745;56.964;24.128;2023-07-20T03:40:59;6.75;;;2.47;;
7406;SDS011;3745;56.964;24.128;2023-07-20T03:43:26;9.57;;;2.28;;
7406;SDS011;3745;56.964;24.128;2023-07-20T03:45:53;6.25;;;2.50;;
7406;SDS011;3745;56.964;24.128;2023-07-20T03:48:22;5.00;;;2.42;;
7406;SDS011;3745;56.964;24.128;2023-07-20T03:50:49;4.18;;;2.65;;
7406;SDS011;3745;56.964;24.128;2023-07-20T03:53:16;3.40;;;2.20;;
7406;SDS011;3745;56.964;24.128;2023-07-20T03:55:51;4.25;;;2.38;;
7406;SDS011;3745;56.964;24.128;2023-07-20T03:58:18;3.17;;;2.45;;
7406;SDS011;3745;56.964;24.128;2023-07-20T04:00:48;5.93;;;2.35;;
7406;SDS011;3745;56.964;24.128;2023-07-20T04:03:18;7.63;;;2.60;;
7406;SDS011;3745;56.964;24.128;2023-07-20T04:05:44;5.97;;;2.50;;
7406;SDS011;3745;56.964;24.128;2023-07-20T04:08:10;7.30;;;2.47;;
7406;SDS011;3745;56.964;24.128;2023-07-20T04:10:36;8.27;;;2.15;;
7406;SDS011;3745;56.964;24.128;2023-07-20T04:13:03;6.60;;;2.50;;
7406;SDS011;3745;56.964;24.128;2023-07-20T04:15:29;10.15;;;3.30;;
7406;SDS011;3745;56.964;24.128;2023-07-20T04:17:54;5.40;;;2.80;;
7406;SDS011;3745;56.964;24.128;2023-07-20T04:20:21;5.70;;;2.95;;
7406;SDS011;3745;56.964;24.128;2023-07-20T04:22:48;2.63;;;2.30;;
7406;SDS011;3745;56.964;24.128;2023-07-20T04:25:14;6.93;;;2.35;;
7406;SDS011;3745;56.964;24.128;2023-07-20T04:27:40;6.60;;;2.97;;
7406;SDS011;3745;56.964;24.128;2023-07-20T04:30:08;6.05;;;2.50;;
7406;SDS011;3745;56.964;24.128;2023-07-20T04:32:35;3.83;;;3.00;;
7406;SDS011;3745;56.964;24.128;2023-07-20T04:35:01;2.70;;;2.40;;
7406;SDS011;3745;56.964;24.128;2023-07-20T04:37:30;3.65;;;2.40;;
7406;SDS011;3745;56.964;24.128;2023-07-20T04:39:56;6.07;;;2.50;;
7406;SDS011;3745;56.964;24.128;2023-07-20T04:42:22;3.67;;;2.40;;
7406;SDS011;3745;56.964;24.128;2023-07-20T04:44:47;4.13;;;2.50;;
7406;SDS011;3745;56.964;24.128;2023-07-20T04:47:13;3.58;;;2.40;;
7406;SDS011;3745;56.964;24.128;2023-07-20T04:49:38;3.00;;;2.63;;
7406;SDS011;3745;56.964;24.128;2023-07-20T04:52:04;3.67;;;2.20;;
7406;SDS011;3745;56.964;24.128;2023-07-20T04:54:30;7.53;;;2.25;;
7406;SDS011;3745;56.964;24.128;2023-07-20T04:56:56;8.20;;;2.55;;
7406;SDS011;3745;56.964;24.128;2023-07-20T04:59:21;7.03;;;3.20;;
7406;SDS011;3745;56.964;24.128;2023-07-20T05:01:47;4.38;;;2.95;;
7406;SDS011;3745;56.964;24.128;2023-07-20T05:04:12;11.18;;;2.75;;
7406;SDS011;3745;56.964;24.128;2023-07-20T05:06:38;7.55;;;3.25;;
7406;SDS011;3745;56.964;24.128;2023-07-20T05:09:04;4.38;;;3.08;;
7406;SDS011;3745;56.964;24.128;2023-07-20T05:11:32;9.30;;;3.10;;
7406;SDS011;3745;56.964;24.128;2023-07-20T05:13:59;9.68;;;2.67;;
7406;SDS011;3745;56.964;24.128;2023-07-20T05:16:24;3.88;;;2.30;;
7406;SDS011;3745;56.964;24.128;2023-07-20T05:18:50;9.15;;;2.83;;
7406;SDS011;3745;56.964;24.128;2023-07-20T05:21:16;4.47;;;2.28;;
7406;SDS011;3745;56.964;24.128;2023-07-20T05:23:41;4.18;;;2.33;;
7406;SDS011;3745;56.964;24.128;2023-07-20T05:26:07;2.97;;;2.30;;
7406;SDS011;3745;56.964;24.128;2023-07-20T05:28:33;5.13;;;2.35;;
7406;SDS011;3745;56.964;24.128;2023-07-20T05:30:59;3.30;;;2.38;;
7406;SDS011;3745;56.964;24.128;2023-07-20T05:33:24;7.50;;;2.35;;
7406;SDS011;3745;56.964;24.128;2023-07-20T05:35:50;4.00;;;2.30;;
7406;SDS011;3745;56.964;24.128;2023-07-20T05:38:16;1.92;;;1.75;;
7406;SDS011;3745;56.964;24.128;2023-07-20T05:40:41;13.35;;;2.50;;
7406;SDS011;3745;56.964;24.128;2023-07-20T05:43:09;2.65;;;2.00;;
7406;SDS011;3745;56.964;24.128;2023-07-20T05:45:35;7.60;;;2.55;;
7406;SDS011;3745;56.964;24.128;2023-07-20T05:48:01;5.75;;;2.13;;
7406;SDS011;3745;56.964;24.128;2023-07-20T05:50:27;8.45;;;2.30;;
7406;SDS011;3745;56.964;24.128;2023-07-20T05:52:53;12.05;;;2.75;;
7406;SDS011;3745;56.964;24.128;2023-07-20T05:55:18;5.43;;;2.15;;
7406;SDS011;3745;56.964;24.128;2023-07-20T05:57:44;7.07;;;2.95;;
7406;SDS011;3745;56.964;24.128;2023-07-20T06:00:10;5.05;;;2.40;;
7406;SDS011;3745;56.964;24.128;2023-07-20T06:02:38;4.65;;;2.30;;
7406;SDS011;3745;56.964;24.128;2023-07-20T06:05:05;5.97;;;2.20;;
7406;SDS011;3745;56.964;24.128;2023-07-20T06:07:37;3.83;;;1.98;;
7406;SDS011;3745;56.964;24.128;2023-07-20T06:10:03;7.78;;;2.17;;
7406;SDS011;3745;56.964;24.128;2023-07-20T06:12:31;4.38;;;2.50;;
7406;SDS011;3745;56.964;24.128;2023-07-20T06:15:01;4.50;;;2.05;;
7406;SDS011;3745;56.964;24.128;2023-07-20T06:17:28;2.80;;;2.10;;
7406;SDS011;3745;56.964;24.128;2023-07-20T06:19:53;4.00;;;2.22;;
7406;SDS011;3745;56.964;24.128;2023-07-20T06:22:19;11.23;;;2.53;;
7406;SDS011;3745;56.964;24.128;2023-07-20T06:24:45;3.67;;;2.00;;
7406;SDS011;3745;56.964;24.128;2023-07-20T06:27:14;3.33;;;2.25;;
7406;SDS011;3745;56.964;24.128;2023-07-20T06:29:39;4.40;;;2.42;;
7406;SDS011;3745;56.964;24.128;2023-07-20T06:32:05;9.00;;;1.92;;
7406;SDS011;3745;56.964;24.128;2023-07-20T06:34:31;7.53;;;2.47;;
7406;SDS011;3745;56.964;24.128;2023-07-20T06:37:02;4.10;;;2.00;;
7406;SDS011;3745;56.964;24.128;2023-07-20T06:39:29;2.20;;;2.00;;
7406;SDS011;3745;56.964;24.128;2023-07-20T06:41:54;3.45;;;2.28;;
7406;SDS011;3745;56.964;24.128;2023-07-20T06:44:20;6.68;;;2.10;;
7406;SDS011;3745;56.964;24.128;2023-07-20T06:46:45;2.22;;;2.03;;
7406;SDS011;3745;56.964;24.128;2023-07-20T06:49:19;4.50;;;2.03;;
7406;SDS011;3745;56.964;24.128;2023-07-20T06:51:50;6.20;;;2.25;;
7406;SDS011;3745;56.964;24.128;2023-07-20T06:54:16;4.63;;;2.05;;
7406;SDS011;3745;56.964;24.128;2023-07-20T06:56:41;2.80;;;2.10;;
7406;SDS011;3745;56.964;24.128;2023-07-20T06:59:07;5.60;;;2.38;;
7406;SDS011;3745;56.964;24.128;2023-07-20T07:01:34;5.00;;;2.60;;
7406;SDS011;3745;56.964;24.128;2023-07-20T07:04:00;8.50;;;2.38;;
7406;SDS011;3745;56.964;24.128;2023-07-20T07:06:26;4.50;;;1.90;;
7406;SDS011;3745;56.964;24.128;2023-07-20T07:08:52;3.13;;;1.95;;
7406;SDS011;3745;56.964;24.128;2023-07-20T07:11:18;6.15;;;2.30;;
7406;SDS011;3745;56.964;24.128;2023-07-20T07:13:45;4.05;;;2.70;;
7406;SDS011;3745;56.964;24.128;2023-07-20T07:16:16;4.32;;;1.95;;
7406;SDS011;3745;56.964;24.128;2023-07-20T07:18:44;2.53;;;1.95;;
7406;SDS011;3745;56.964;24.128;2023-07-20T07:21:17;1.70;;;1.60;;
7406;SDS011;3745;56.964;24.128;2023-07-20T07:23:46;2.60;;;1.63;;
7406;SDS011;3745;56.964;24.128;2023-07-20T07:26:18;1.33;;;1.23;;
7406;SDS011;3745;56.964;24.128;2023-07-20T07:28:49;4.30;;;1.60;;
7406;SDS011;3745;56.964;24.128;2023-07-20T07:31:24;1.48;;;1.33;;
7406;SDS011;3745;56.964;24.128;2023-07-20T07:34:38;1.38;;;1.27;;
7406;SDS011;3745;56.964;24.128;2023-07-20T07:39:18;2.60;;;1.60;;
7406;SDS011;3745;56.964;24.128;2023-07-20T07:41:43;4.68;;;1.27;;
7406;SDS011;3745;56.964;24.128;2023-07-20T07:44:10;1.67;;;1.25;;
7406;SDS011;3745;56.964;24.128;2023-07-20T07:46:37;1.92;;;1.52;;
7406;SDS011;3745;56.964;24.128;2023-07-20T07:49:05;2.83;;;1.30;;
7406;SDS011;3745;56.964;24.128;2023-07-20T07:51:34;7.13;;;1.65;;
7406;SDS011;3745;56.964;24.128;2023-07-20T07:57:22;1.30;;;1.17;;
7406;SDS011;3745;56.964;24.128;2023-07-20T08:14:05;2.38;;;1.48;;
7406;SDS011;3745;56.964;24.128;2023-07-20T08:20:20;4.22;;;1.05;;
7406;SDS011;3745;56.964;24.128;2023-07-20T08:23:00;2.88;;;1.67;;
7406;SDS011;3745;56.964;24.128;2023-07-20T08:25:29;2.25;;;1.88;;
7406;SDS011;3745;56.964;24.128;2023-07-20T08:27:54;1.25;;;1.23;;
7406;SDS011;3745;56.964;24.128;2023-07-20T08:30:21;3.88;;;1.40;;
7406;SDS011;3745;56.964;24.128;2023-07-20T08:32:48;1.70;;;1.60;;
7406;SDS011;3745;56.964;24.128;2023-07-20T08:35:17;4.28;;;1.83;;
7406;SDS011;3745;56.964;24.128;2023-07-20T08:37:43;1.48;;;1.40;;
7406;SDS011;3745;56.964;24.128;2023-07-20T08:40:12;1.90;;;1.60;;
7406;SDS011;3745;56.964;24.128;2023-07-20T08:42:39;3.10;;;1.60;;
7406;SDS011;3745;56.964;24.128;2023-07-20T08:57:13;2.70;;;1.70;;
7406;SDS011;3745;56.964;24.128;2023-07-20T08:59:48;1.60;;;1.50;;
7406;SDS011;3745;56.964;24.128;2023-07-20T09:02:17;1.70;;;1.60;;
7406;SDS011;3745;56.964;24.128;2023-07-20T09:04:44;1.40;;;1.40;;
7406;SDS011;3745;56.964;24.128;2023-07-20T09:07:25;2.03;;;1.55;;
7406;SDS011;3745;56.964;24.128;2023-07-20T09:10:07;4.68;;;1.70;;
7406;SDS011;3745;56.964;24.128;2023-07-20T09:15:23;2.60;;;1.80;;
7406;SDS011;3745;56.964;24.128;2023-07-20T09:17:52;1.55;;;1.25;;
7406;SDS011;3745;56.964;24.128;2023-07-20T09:20:19;2.47;;;1.42;;
7406;SDS011;3745;56.964;24.128;2023-07-20T09:22:46;2.33;;;1.42;;
7406;SDS011;3745;56.964;24.128;2023-07-20T09:25:23;4.13;;;1.48;;
7406;SDS011;3745;56.964;24.128;2023-07-20T09:27:55;2.40;;;1.40;;
7406;SDS011;3745;56.964;24.128;2023-07-20T09:42:08;6.90;;;1.90;;
7406;SDS011;3745;56.964;24.128;2023-07-20T09:44:33;7.00;;;1.75;;
7406;SDS011;3745;56.964;24.128;2023-07-20T09:46:59;6.90;;;1.70;;
7406;SDS011;3745;56.964;24.128;2023-07-20T09:49:26;3.45;;;2.05;;
7406;SDS011;3745;56.964;24.128;2023-07-20T09:51:52;4.10;;;1.70;;
7406;SDS011;3745;56.964;24.128;2023-07-20T09:54:19;2.33;;;1.90;;
7406;SDS011;3745;56.964;24.128;2023-07-20T10:00:00;1.55;;;1.40;;
7406;SDS011;3745;56.964;24.128;2023-07-20T10:02:37;4.32;;;1.52;;
7406;SDS011;3745;56.964;24.128;2023-07-20T10:05:08;3.40;;;1.60;;
7406;SDS011;3745;56.964;24.128;2023-07-20T10:07:36;3.97;;;1.38;;
7406;SDS011;3745;56.964;24.128;2023-07-20T10:10:10;3.90;;;2.03;;
7406;SDS011;3745;56.964;24.128;2023-07-20T10:12:42;1.83;;;1.63;;
7406;SDS011;3745;56.964;24.128;2023-07-20T10:25:36;3.78;;;3.47;;
7406;SDS011;3745;56.964;24.128;2023-07-20T10:28:19;3.58;;;3.38;;
7406;SDS011;3745;56.964;24.128;2023-07-20T10:30:51;5.78;;;4.15;;
7406;SDS011;3745;56.964;24.128;2023-07-20T10:33:17;6.13;;;4.63;;
7406;SDS011;3745;56.964;24.128;2023-07-20T10:51:08;1.60;;;1.50;;
7406;SDS011;3745;56.964;24.128;2023-07-20T10:53:44;1.45;;;1.40;;
7406;SDS011;3745;56.964;24.128;2023-07-20T10:56:15;2.85;;;1.40;;
7406;SDS011;3745;56.964;24.128;2023-07-20T10:58:47;1.35;;;1.33;;
7406;SDS011;3745;56.964;24.128;2023-07-20T11:01:20;2.45;;;1.10;;
7406;SDS011;3745;56.964;24.128;2023-07-20T11:07:14;3.60;;;1.55;;
7406;SDS011;3745;56.964;24.128;2023-07-20T11:09:41;3.20;;;1.77;;
7406;SDS011;3745;56.964;24.128;2023-07-20T11:12:14;1.60;;;1.50;;
7406;SDS011;3745;56.964;24.128;2023-07-20T11:14:52;2.90;;;1.27;;
7406;SDS011;3745;56.964;24.128;2023-07-20T11:17:38;2.30;;;1.40;;
7406;SDS011;3745;56.964;24.128;2023-07-20T11:20:10;3.75;;;1.20;;
7406;SDS011;3745;56.964;24.128;2023-07-20T11:26:13;3.70;;;1.50;;
7406;SDS011;3745;56.964;24.128;2023-07-20T11:32:29;4.22;;;1.52;;
7406;SDS011;3745;56.964;24.128;2023-07-20T11:35:15;3.30;;;1.27;;
7406;SDS011;3745;56.964;24.128;2023-07-20T11:46:42;1.27;;;1.27;;
7406;SDS011;3745;56.964;24.128;2023-07-20T11:49:10;2.15;;;1.38;;
7406;SDS011;3745;56.964;24.128;2023-07-20T11:51:36;1.20;;;1.20;;
7406;SDS011;3745;56.964;24.128;2023-07-20T11:54:06;2.83;;;1.20;;
7406;SDS011;3745;56.964;24.128;2023-07-20T11:56:36;1.30;;;1.20;;
7406;SDS011;3745;56.964;24.128;2023-07-20T11:59:07;2.55;;;1.65;;
7406;SDS011;3745;56.964;24.128;2023-07-20T12:04:09;1.50;;;1.40;;
7406;SDS011;3745;56.964;24.128;2023-07-20T12:06:34;3.15;;;1.67;;
7406;SDS011;3745;56.964;24.128;2023-07-20T12:12:31;2.38;;;1.55;;
7406;SDS011;3745;56.964;24.128;2023-07-20T12:15:14;1.95;;;1.17;;
7406;SDS011;3745;56.964;24.128;2023-07-20T12:18:03;2.08;;;1.73;;
7406;SDS011;3745;56.964;24.128;2023-07-20T12:23:04;2.08;;;1.23;;
7406;SDS011;3745;56.964;24.128;2023-07-20T12:25:41;1.65;;;1.05;;
7406;SDS011;3745;56.964;24.128;2023-07-20T12:28:08;2.00;;;1.30;;
7406;SDS011;3745;56.964;24.128;2023-07-20T12:31:29;2.65;;;1.13;;
7406;SDS011;3745;56.964;24.128;2023-07-20T12:33:56;1.90;;;1.30;;
7406;SDS011;3745;56.964;24.128;2023-07-20T12:36:22;1.63;;;1.27;;
7406;SDS011;3745;56.964;24.128;2023-07-20T12:38:48;1.42;;;1.33;;
7406;SDS011;3745;56.964;24.128;2023-07-20T12:41:14;1.30;;;1.20;;
7406;SDS011;3745;56.964;24.128;2023-07-20T12:43:43;1.33;;;1.30;;
7406;SDS011;3745;56.964;24.128;2023-07-20T12:46:09;4.50;;;1.40;;
7406;SDS011;3745;56.964;24.128;2023-07-20T12:48:37;1.23;;;1.20;;
7406;SDS011;3745;56.964;24.128;2023-07-20T12:51:05;1.17;;;1.13;;
7406;SDS011;3745;56.964;24.128;2023-07-20T12:53:31;3.05;;;1.30;;
7406;SDS011;3745;56.964;24.128;2023-07-20T12:55:57;2.20;;;1.30;;
7406;SDS011;3745;56.964;24.128;2023-07-20T12:58:23;1.13;;;1.13;;
7406;SDS011;3745;56.964;24.128;2023-07-20T13:00:49;1.20;;;1.20;;
7406;SDS011;3745;56.964;24.128;2023-07-20T13:03:15;1.55;;;1.45;;
7406;SDS011;3745;56.964;24.128;2023-07-20T13:05:41;1.20;;;1.00;;
7406;SDS011;3745;56.964;24.128;2023-07-20T13:08:07;2.95;;;1.73;;
7406;SDS011;3745;56.964;24.128;2023-07-20T13:10:33;3.80;;;1.33;;
7406;SDS011;3745;56.964;24.128;2023-07-20T13:12:59;3.38;;;1.25;;
7406;SDS011;3745;56.964;24.128;2023-07-20T13:15:29;2.47;;;1.45;;
7406;SDS011;3745;56.964;24.128;2023-07-20T13:17:57;1.52;;;1.42;;
7406;SDS011;3745;56.964;24.128;2023-07-20T13:20:23;1.30;;;1.20;;
7406;SDS011;3745;56.964;24.128;2023-07-20T13:22:49;1.67;;;1.52;;
7406;SDS011;3745;56.964;24.128;2023-07-20T13:25:17;3.67;;;1.70;;
7406;SDS011;3745;56.964;24.128;2023-07-20T13:27:44;2.50;;;1.55;;
7406;SDS011;3745;56.964;24.128;2023-07-20T13:30:10;1.45;;;1.35;;
7406;SDS011;3745;56.964;24.128;2023-07-20T13:32:41;2.50;;;1.58;;
7406;SDS011;3745;56.964;24.128;2023-07-20T13:35:13;1.45;;;1.20;;
7406;SDS011;3745;56.964;24.128;2023-07-20T13:37:39;1.60;;;1.30;;
7406;SDS011;3745;56.964;24.128;2023-07-20T13:40:05;1.35;;;1.33;;
7406;SDS011;3745;56.964;24.128;2023-07-20T13:42:36;2.45;;;1.42;;
7406;SDS011;3745;56.964;24.128;2023-07-20T13:45:02;1.77;;;1.10;;
7406;SDS011;3745;56.964;24.128;2023-07-20T13:47:30;1.75;;;1.25;;
7406;SDS011;3745;56.964;24.128;2023-07-20T13:49:56;1.00;;;1.00;;
7406;SDS011;3745;56.964;24.128;2023-07-20T13:52:22;1.30;;;1.30;;
7406;SDS011;3745;56.964;24.128;2023-07-20T13:54:47;1.75;;;1.17;;
7406;SDS011;3745;56.964;24.128;2023-07-20T13:57:13;2.55;;;1.33;;
7406;SDS011;3745;56.964;24.128;2023-07-20T13:59:39;2.88;;;1.02;;
7406;SDS011;3745;56.964;24.128;2023-07-20T14:02:05;0.95;;;0.95;;
7406;SDS011;3745;56.964;24.128;2023-07-20T14:04:31;0.90;;;0.90;;
7406;SDS011;3745;56.964;24.128;2023-07-20T14:06:56;2.17;;;1.20;;
7406;SDS011;3745;56.964;24.128;2023-07-20T14:09:22;1.92;;;1.00;;
7406;SDS011;3745;56.964;24.128;2023-07-20T14:11:48;4.25;;;1.00;;
7406;SDS011;3745;56.964;24.128;2023-07-20T14:14:13;1.85;;;1.17;;
7406;SDS011;3745;56.964;24.128;2023-07-20T14:16:39;1.00;;;1.00;;
7406;SDS011;3745;56.964;24.128;2023-07-20T14:19:05;5.03;;;1.20;;
7406;SDS011;3745;56.964;24.128;2023-07-20T14:21:30;1.20;;;0.90;;
7406;SDS011;3745;56.964;24.128;2023-07-20T14:23:56;2.08;;;1.15;;
7406;SDS011;3745;56.964;24.128;2023-07-20T14:26:23;4.43;;;1.02;;
7406;SDS011;3745;56.964;24.128;2023-07-20T14:28:48;3.25;;;1.20;;
7406;SDS011;3745;56.964;24.128;2023-07-20T14:31:21;4.28;;;1.05;;
7406;SDS011;3745;56.964;24.128;2023-07-20T14:33:47;1.23;;;1.10;;
7406;SDS011;3745;56.964;24.128;2023-07-20T14:36:13;1.70;;;0.88;;
7406;SDS011;3745;56.964;24.128;2023-07-20T14:38:38;3.08;;;1.30;;
7406;SDS011;3745;56.964;24.128;2023-07-20T14:41:05;2.83;;;1.13;;
7406;SDS011;3745;56.964;24.128;2023-07-20T14:43:32;1.15;;;1.10;;
7406;SDS011;3745;56.964;24.128;2023-07-20T14:45:57;1.40;;;1.02;;
7406;SDS011;3745;56.964;24.128;2023-07-20T14:48:25;0.82;;;0.82;;
7406;SDS011;3745;56.964;24.128;2023-07-20T14:50:51;5.65;;;1.08;;
7406;SDS011;3745;56.964;24.128;2023-07-20T14:53:16;2.03;;;0.90;;
7406;SDS011;3745;56.964;24.128;2023-07-20T14:55:42;2.45;;;1.00;;
7406;SDS011;3745;56.964;24.128;2023-07-20T14:58:08;2.58;;;1.20;;
7406;SDS011;3745;56.964;24.128;2023-07-20T15:00:34;3.00;;;1.05;;
7406;SDS011;3745;56.964;24.128;2023-07-20T15:03:00;1.02;;;1.02;;
7406;SDS011;3745;56.964;24.128;2023-07-20T15:05:25;1.88;;;1.10;;
7406;SDS011;3745;56.964;24.128;2023-07-20T15:07:53;0.77;;;0.77;;
7406;SDS011;3745;56.964;24.128;2023-07-20T15:10:19;2.05;;;1.02;;
7406;SDS011;3745;56.964;24.128;2023-07-20T15:12:45;3.13;;;1.10;;
7406;SDS011;3745;56.964;24.128;2023-07-20T15:15:11;2.35;;;1.10;;
7406;SDS011;3745;56.964;24.128;2023-07-20T15:17:41;1.33;;;1.15;;
7406;SDS011;3745;56.964;24.128;2023-07-20T15:20:09;0.85;;;0.85;;
7406;SDS011;3745;56.964;24.128;2023-07-20T15:22:36;1.27;;;1.05;;
7406;SDS011;3745;56.964;24.128;2023-07-20T15:25:03;1.00;;;0.85;;
7406;SDS011;3745;56.964;24.128;2023-07-20T15:27:29;3.78;;;1.20;;
7406;SDS011;3745;56.964;24.128;2023-07-20T15:29:55;1.00;;;0.95;;
7406;SDS011;3745;56.964;24.128;2023-07-20T15:32:20;2.00;;;0.80;;
7406;SDS011;3745;56.964;24.128;2023-07-20T15:34:46;2.50;;;1.33;;
7406;SDS011;3745;56.964;24.128;2023-07-20T15:37:12;2.20;;;0.90;;
7406;SDS011;3745;56.964;24.128;2023-07-20T15:39:38;2.80;;;1.23;;
7406;SDS011;3745;56.964;24.128;2023-07-20T15:42:04;3.38;;;1.00;;
7406;SDS011;3745;56.964;24.128;2023-07-20T15:44:30;0.90;;;0.90;;
7406;SDS011;3745;56.964;24.128;2023-07-20T15:46:56;2.08;;;1.10;;
7406;SDS011;3745;56.964;24.128;2023-07-20T15:49:22;1.45;;;1.20;;
7406;SDS011;3745;56.964;24.128;2023-07-20T15:51:49;1.95;;;1.15;;
7406;SDS011;3745;56.964;24.128;2023-07-20T15:54:15;4.03;;;1.50;;
7406;SDS011;3745;56.964;24.128;2023-07-20T15:56:41;1.40;;;1.20;;
7406;SDS011;3745;56.964;24.128;2023-07-20T15:59:09;1.33;;;0.80;;
7406;SDS011;3745;56.964;24.128;2023-07-20T16:01:36;2.03;;;0.90;;
7406;SDS011;3745;56.964;24.128;2023-07-20T16:04:04;2.63;;;0.90;;
7406;SDS011;3745;56.964;24.128;2023-07-20T16:06:30;2.60;;;1.15;;
7406;SDS011;3745;56.964;24.128;2023-07-20T16:08:56;1.75;;;1.30;;
7406;SDS011;3745;56.964;24.128;2023-07-20T16:11:22;2.05;;;0.85;;
7406;SDS011;3745;56.964;24.128;2023-07-20T16:13:49;2.58;;;0.90;;
7406;SDS011;3745;56.964;24.128;2023-07-20T16:16:15;2.88;;;1.08;;
7406;SDS011;3745;56.964;24.128;2023-07-20T16:18:41;4.03;;;1.10;;
7406;SDS011;3745;56.964;24.128;2023-07-20T16:21:07;0.98;;;0.98;;
7406;SDS011;3745;56.964;24.128;2023-07-20T16:23:32;1.05;;;1.05;;
7406;SDS011;3745;56.964;24.128;2023-07-20T16:25:59;1.55;;;1.38;;
7406;SDS011;3745;56.964;24.128;2023-07-20T16:28:24;1.70;;;1.00;;
7406;SDS011;3745;56.964;24.128;2023-07-20T16:30:51;4.15;;;1.05;;
7406;SDS011;3745;56.964;24.128;2023-07-20T16:33:17;5.10;;;1.30;;
7406;SDS011;3745;56.964;24.128;2023-07-20T16:35:43;0.95;;;0.90;;
7406;SDS011;3745;56.964;24.128;2023-07-20T16:38:09;2.22;;;1.20;;
7406;SDS011;3745;56.964;24.128;2023-07-20T16:40:36;0.93;;;0.90;;
7406;SDS011;3745;56.964;24.128;2023-07-20T16:43:02;3.65;;;1.20;;
7406;SDS011;3745;56.964;24.128;2023-07-20T16:45:28;2.13;;;1.13;;
7406;SDS011;3745;56.964;24.128;2023-07-20T16:47:53;1.48;;;1.10;;
7406;SDS011;3745;56.964;24.128;2023-07-20T16:50:19;3.42;;;1.05;;
7406;SDS011;3745;56.964;24.128;2023-07-20T16:52:45;3.10;;;1.20;;
7406;SDS011;3745;56.964;24.128;2023-07-20T16:55:11;0.82;;;0.80;;
7406;SDS011;3745;56.964;24.128;2023-07-20T16:57:38;2.90;;;1.10;;
7406;SDS011;3745;56.964;24.128;2023-07-20T17:00:04;4.47;;;1.10;;
7406;SDS011;3745;56.964;24.128;2023-07-20T17:02:36;2.00;;;1.15;;